Time;durP1;ratioP1;P1;durP2;ratioP2;P2;SDS_P1;SDS_P2;PMS_P1;PMS_P2;Temp;Humidity;BMP_temperature;BMP_pressure;BME280_temperature;BME280_humidity;BME280_pressure;Samples;Min_cycle;Max_cycle;Signal;HPM_P1;HPM_P2
2020/12/05 00:01:53;;;;;;;39.20;17.67;;;;;;;4.17;86.14;99503.56;4976561;28;20044;-79
2020/12/05 00:04:18;;;;;;;39.97;17.88;;;;;;;4.32;86.46;99548.59;4993652;28;20192;-78
2020/12/05 00:06:44;;;;;;;39.00;18.25;;;;;;;3.94;86.59;99494.03;4960086;28;20149;-79
2020/12/05 00:09:11;;;;;;;39.00;19.05;;;;;;;4.25;86.68;99541.91;4993725;28;20084;-77
2020/12/05 00:11:37;;;;;;;43.10;18.98;;;;;;;4.09;87.18;99540.88;4976270;28;20027;-80
2020/12/05 00:14:02;;;;;;;43.97;19.50;;;;;;;4.10;87.31;99545.22;4976064;28;20092;-78
2020/12/05 00:16:28;;;;;;;44.92;19.83;;;;;;;4.02;87.35;99542.06;4993499;28;20031;-78
2020/12/05 00:18:56;;;;;;;41.03;19.45;;;;;;;4.09;87.07;99548.78;4975976;28;20050;-77
2020/12/05 00:21:23;;;;;;;40.97;19.10;;;;;;;3.94;87.53;99536.25;4994507;28;20034;-77
2020/12/05 00:23:49;;;;;;;43.17;19.73;;;;;;;4.03;87.62;99551.69;4997259;28;20113;-79
2020/12/05 00:26:18;;;;;;;41.20;18.98;;;;;;;4.06;87.36;99545.44;4997647;28;20125;-79
2020/12/05 00:28:44;;;;;;;40.70;18.10;;;;;;;4.12;86.98;99550.44;4997173;28;20038;-78
2020/12/05 00:31:15;;;;;;;41.28;18.15;;;;;;;3.85;87.04;99503.22;4980108;28;20042;-81
2020/12/05 00:33:41;;;;;;;38.67;18.13;;;;;;;3.98;87.28;99551.91;4997410;28;20070;-77
2020/12/05 00:36:08;;;;;;;39.63;18.67;;;;;;;3.92;87.54;99546.88;4980387;28;20361;-80
2020/12/05 00:38:33;;;;;;;35.92;17.52;;;;;;;3.93;87.50;99545.97;4997507;28;20042;-79
2020/12/05 00:40:59;;;;;;;37.80;19.65;;;;;;;3.72;87.60;99520.53;4979587;28;20140;-79
2020/12/05 00:43:24;;;;;;;39.97;18.52;;;;;;;3.77;87.75;99522.97;4997510;28;20041;-80
2020/12/05 00:45:50;;;;;;;41.92;19.42;;;;;;;3.80;87.75;99534.25;4979703;28;20038;-79
2020/12/05 00:48:15;;;;;;;42.42;19.67;;;;;;;3.95;87.79;99540.59;4980140;28;20038;-80
2020/12/05 00:50:41;;;;;;;42.63;18.83;;;;;;;3.97;87.88;99552.84;4996819;28;20054;-79
2020/12/05 00:53:06;;;;;;;46.17;21.30;;;;;;;3.88;87.93;99562.94;4979732;28;20043;-78
2020/12/05 00:55:32;;;;;;;42.42;19.38;;;;;;;3.55;88.09;99501.94;4997064;28;20034;-78
2020/12/05 00:57:57;;;;;;;44.15;20.70;;;;;;;3.83;88.06;99542.00;4979348;28;20044;-78
2020/12/05 01:00:23;;;;;;;40.58;19.60;;;;;;;3.90;87.94;99564.56;4963615;28;20030;-80
2020/12/05 01:02:48;;;;;;;44.67;19.50;;;;;;;3.63;88.45;99563.97;4996751;28;20037;-79
2020/12/05 01:05:14;;;;;;;38.75;18.58;;;;;;;3.72;88.59;99571.50;4996944;28;20038;-79
2020/12/05 01:07:40;;;;;;;43.30;18.50;;;;;;;3.81;88.11;99551.78;4996954;28;20041;-80
2020/12/05 01:10:06;;;;;;;42.90;19.67;;;;;;;3.93;88.08;99577.63;4996478;28;20116;-80
2020/12/05 01:12:32;;;;;;;41.00;19.48;;;;;;;3.98;87.83;99586.22;4996652;28;20039;-83
2020/12/05 01:15:01;;;;;;;44.83;19.60;;;;;;;3.85;87.81;99574.47;4979147;28;20121;-82
2020/12/05 01:17:32;;;;;;;46.40;21.20;;;;;;;3.95;87.63;99575.78;4996575;28;20126;-82
2020/12/05 01:20:05;;;;;;;40.45;18.98;;;;;;;3.80;87.95;99560.63;4978804;28;20034;-82
2020/12/05 01:22:31;;;;;;;45.95;19.63;;;;;;;3.92;87.96;99591.75;4996883;28;20038;-83
2020/12/05 01:24:57;;;;;;;42.70;18.27;;;;;;;3.98;87.62;99586.22;4978798;28;20049;-89
2020/12/05 01:27:22;;;;;;;41.60;19.13;;;;;;;3.83;87.67;99549.06;4979464;28;20042;-89
2020/12/05 01:29:48;;;;;;;37.67;17.95;;;;;;;4.00;87.82;99573.81;4979520;28;20035;-87
2020/12/05 01:32:13;;;;;;;37.45;18.60;;;;;;;3.92;87.91;99575.91;4980182;28;20122;-88
2020/12/05 01:34:38;;;;;;;39.30;18.92;;;;;;;3.86;88.21;99567.41;4995783;28;20034;-87
2020/12/05 01:37:04;;;;;;;42.63;19.42;;;;;;;3.80;88.68;99575.59;4978722;28;20488;-87
2020/12/05 01:39:29;;;;;;;39.55;19.23;;;;;;;3.88;88.56;99569.06;4996565;28;20160;-79
2020/12/05 01:41:55;;;;;;;43.42;19.20;;;;;;;3.65;88.29;99527.00;4978590;28;20462;-79
2020/12/05 01:44:21;;;;;;;43.50;18.95;;;;;;;3.89;88.37;99564.66;4978754;28;20043;-77
2020/12/05 01:46:47;;;;;;;45.53;20.55;;;;;;;3.82;88.45;99558.78;4962343;28;20069;-78
2020/12/05 01:49:20;;;;;;;42.30;18.52;;;;;;;3.94;88.45;99565.28;4995978;28;20394;-85
2020/12/05 01:51:45;;;;;;;42.90;20.30;;;;;;;3.65;88.73;99534.91;4974880;28;20061;-78
2020/12/05 01:54:11;;;;;;;40.03;19.08;;;;;;;3.92;88.49;99564.50;4975340;28;20488;-84
2020/12/05 01:56:38;;;;;;;43.70;19.33;;;;;;;3.86;88.75;99565.66;4976740;28;20049;-86
2020/12/05 01:59:07;;;;;;;45.95;19.73;;;;;;;3.91;88.67;99568.94;4974949;28;20039;-83
2020/12/05 02:01:33;;;;;;;41.03;19.55;;;;;;;3.81;88.55;99549.16;4976660;28;20121;-83
2020/12/05 02:04:01;;;;;;;42.65;19.48;;;;;;;3.86;88.82;99565.66;4976609;28;20038;-83
2020/12/05 02:06:33;;;;;;;40.75;19.83;;;;;;;3.85;88.92;99561.25;4975164;28;20089;-83
2020/12/05 02:09:07;;;;;;;46.03;21.33;;;;;;;3.82;89.43;99563.19;4974859;28;20027;-84
2020/12/05 02:11:38;;;;;;;38.75;19.83;;;;;;;3.61;89.21;99513.09;4976287;28;20109;-82
2020/12/05 02:14:07;;;;;;;41.28;19.67;;;;;;;3.83;89.26;99549.94;4974945;28;20447;-80
2020/12/05 02:16:34;;;;;;;43.08;19.02;;;;;;;3.77;89.43;99549.38;4974919;28;20038;-78
2020/12/05 02:19:01;;;;;;;41.83;18.92;;;;;;;3.70;89.37;99549.63;4974627;28;20050;-79
2020/12/05 02:21:29;;;;;;;37.63;18.65;;;;;;;3.67;89.51;99538.34;4975040;28;20125;-79
2020/12/05 02:23:57;;;;;;;43.25;19.42;;;;;;;3.70;89.80;99544.34;4975995;28;20049;-78
2020/12/05 02:26:23;;;;;;;43.42;19.38;;;;;;;3.93;89.83;99564.44;4976148;28;20038;-82
2020/12/05 02:28:48;;;;;;;41.75;18.92;;;;;;;3.91;89.96;99563.66;4976047;28;20034;-82
2020/12/05 02:31:15;;;;;;;39.33;18.88;;;;;;;3.85;89.63;99534.03;4974800;28;20545;-82
2020/12/05 02:33:41;;;;;;;41.78;19.00;;;;;;;3.93;89.41;99577.63;4976092;28;20031;-81
2020/12/05 02:36:06;;;;;;;42.55;19.80;;;;;;;4.07;89.45;99579.69;4974389;28;20380;-80
2020/12/05 02:38:41;;;;;;;40.50;19.25;;;;;;;4.03;89.51;99578.94;4974497;28;20037;-81
2020/12/05 02:41:06;;;;;;;40.13;18.88;;;;;;;4.03;89.05;99571.00;4975697;28;20035;-82
2020/12/05 02:43:34;;;;;;;42.65;20.13;;;;;;;4.08;89.22;99577.88;4975914;28;20073;-81
2020/12/05 02:46:00;;;;;;;42.80;19.02;;;;;;;4.03;89.08;99568.38;4973193;28;20476;-81
2020/12/05 02:48:25;;;;;;;41.47;19.20;;;;;;;3.97;88.93;99547.56;4974471;28;20042;-76
2020/12/05 02:50:51;;;;;;;42.58;19.25;;;;;;;4.23;88.69;99587.75;4985622;28;20050;-77
2020/12/05 02:53:16;;;;;;;38.80;18.52;;;;;;;4.22;88.44;99586.03;4995255;28;20097;-76
2020/12/05 02:55:41;;;;;;;39.50;18.88;;;;;;;4.30;88.24;99587.41;4961546;28;20041;-77
2020/12/05 02:58:07;;;;;;;45.92;18.67;;;;;;;4.17;88.06;99559.88;4961934;28;20399;-78
2020/12/05 03:00:33;;;;;;;39.33;18.95;;;;;;;4.03;88.40;99556.97;4961557;28;20041;-77
2020/12/05 03:02:58;;;;;;;44.10;19.70;;;;;;;4.17;88.37;99580.97;4994570;28;20104;-78
2020/12/05 03:05:24;;;;;;;43.83;19.88;;;;;;;4.37;88.04;99595.94;4977264;28;20472;-78
2020/12/05 03:07:49;;;;;;;38.80;19.55;;;;;;;4.28;88.38;99591.06;4994725;28;20069;-77
2020/12/05 03:10:15;;;;;;;39.90;19.25;;;;;;;4.09;88.31;99561.13;4994654;28;20030;-78
2020/12/05 03:12:41;;;;;;;40.40;18.80;;;;;;;4.37;87.75;99587.16;4977152;28;20041;-78
2020/12/05 03:15:06;;;;;;;38.58;18.90;;;;;;;4.51;87.49;99603.22;4976704;28;20038;-78
2020/12/05 03:17:31;;;;;;;38.05;17.63;;;;;;;4.53;86.77;99594.28;4977279;28;20030;-77
2020/12/05 03:19:57;;;;;;;38.67;18.40;;;;;;;4.32;86.77;99574.13;4993864;28;20096;-79
2020/12/05 03:22:23;;;;;;;39.35;19.30;;;;;;;4.59;86.80;99617.78;4994303;28;20528;-77
2020/12/05 03:24:48;;;;;;;40.03;18.67;;;;;;;4.38;87.19;99600.28;4994370;28;20027;-78
2020/12/05 03:27:14;;;;;;;40.30;20.17;;;;;;;4.19;87.64;99583.53;4993994;28;20080;-78
2020/12/05 03:29:40;;;;;;;40.83;20.35;;;;;;;4.45;87.63;99622.00;4993925;28;20034;-78
2020/12/05 03:32:13;;;;;;;38.25;19.33;;;;;;;4.44;86.98;99583.28;4994061;28;20057;-83
2020/12/05 03:34:42;;;;;;;38.47;18.08;;;;;;;4.63;86.85;99620.28;4961998;28;20411;-82
2020/12/05 03:37:12;;;;;;;38.97;18.17;;;;;;;4.24;87.05;99563.06;4960830;28;20053;-82
2020/12/05 03:39:37;;;;;;;36.15;17.98;;;;;;;4.62;86.85;99614.13;4961039;28;20038;-79
2020/12/05 03:42:03;;;;;;;37.22;19.88;;;;;;;4.55;86.87;99605.66;4944548;28;20041;-79
2020/12/05 03:44:29;;;;;;;38.25;19.30;;;;;;;4.57;86.84;99617.00;4976801;28;20480;-79
2020/12/05 03:46:54;;;;;;;39.78;18.52;;;;;;;4.65;86.56;99613.16;4994187;28;20050;-78
2020/12/05 03:49:20;;;;;;;39.40;18.88;;;;;;;4.59;86.71;99607.22;4994158;28;20041;-78
2020/12/05 03:51:45;;;;;;;39.28;18.17;;;;;;;4.62;86.35;99608.00;4993941;28;20052;-79
2020/12/05 03:54:11;;;;;;;37.05;18.17;;;;;;;4.51;86.55;99585.56;4976261;28;20137;-78
2020/12/05 03:56:36;;;;;;;39.35;19.17;;;;;;;4.44;86.55;99565.69;4976338;28;20109;-79
2020/12/05 03:59:02;;;;;;;40.78;19.00;;;;;;;4.55;86.62;99600.38;4976374;28;20113;-79
2020/12/05 04:01:28;;;;;;;38.28;18.42;;;;;;;4.53;86.85;99596.06;4993829;28;20030;-77
2020/12/05 04:03:53;;;;;;;40.33;18.70;;;;;;;4.31;86.79;99567.16;4976658;28;20048;-77
2020/12/05 04:06:18;;;;;;;41.90;17.95;;;;;;;4.28;86.84;99575.22;4993573;28;20109;-79
2020/12/05 04:08:44;;;;;;;38.63;18.65;;;;;;;4.35;87.60;99615.41;4994168;28;20073;-80
2020/12/05 04:11:10;;;;;;;41.17;19.33;;;;;;;4.36;87.27;99611.84;4993347;28;20038;-80
2020/12/05 04:13:35;;;;;;;39.80;18.85;;;;;;;4.38;86.87;99613.47;4993695;28;20033;-80
2020/12/05 04:16:01;;;;;;;38.70;19.17;;;;;;;4.47;86.90;99630.69;4975809;28;20034;-79
2020/12/05 04:18:26;;;;;;;40.10;19.13;;;;;;;4.18;87.00;99579.19;4993648;28;20096;-80
2020/12/05 04:20:52;;;;;;;33.30;17.63;;;;;;;4.44;86.89;99618.50;4993603;28;20044;-79
2020/12/05 04:23:18;;;;;;;37.70;18.60;;;;;;;4.45;86.91;99617.56;4993195;28;20030;-81
2020/12/05 04:25:43;;;;;;;35.90;17.55;;;;;;;4.44;86.70;99615.84;4993695;28;20043;-82
2020/12/05 04:28:09;;;;;;;41.20;18.52;;;;;;;4.36;86.87;99615.34;4975882;28;20080;-82
2020/12/05 04:30:35;;;;;;;36.53;18.48;;;;;;;4.21;87.24;99605.44;4993799;28;20121;-82
2020/12/05 04:33:00;;;;;;;40.28;18.83;;;;;;;4.00;87.62;99579.09;4993400;28;20037;-81
2020/12/05 04:35:26;;;;;;;41.08;19.42;;;;;;;4.06;87.92;99619.34;4993738;28;20041;-82
2020/12/05 04:37:51;;;;;;;35.15;17.63;;;;;;;3.95;88.33;99606.56;4976138;28;20085;-82
2020/12/05 04:40:17;;;;;;;38.22;19.05;;;;;;;3.99;88.42;99619.59;4975611;28;20365;-82
2020/12/05 04:42:45;;;;;;;39.58;18.90;;;;;;;3.86;88.34;99602.59;4975831;28;20065;-81
2020/12/05 04:45:11;;;;;;;39.90;18.77;;;;;;;3.88;89.01;99619.19;4975961;28;20088;-83
2020/12/05 04:47:39;;;;;;;38.92;18.63;;;;;;;3.87;88.82;99625.41;4993536;28;20042;-80
2020/12/05 04:50:05;;;;;;;37.70;18.75;;;;;;;3.87;88.91;99620.13;4992478;28;20435;-80
2020/12/05 04:52:52;;;;;;;44.35;20.10;;;;;;;3.87;88.96;99622.75;4993163;28;20034;-78
2020/12/05 04:55:23;;;;;;;39.08;19.48;;;;;;;3.77;89.35;99623.22;4975701;28;20026;-78
2020/12/05 04:57:59;;;;;;;41.22;19.80;;;;;;;3.69;89.38;99608.56;4993252;28;20475;-77
2020/12/05 05:00:28;;;;;;;38.20;19.13;;;;;;;3.73;89.48;99628.59;4976186;28;20427;-78
2020/12/05 05:02:58;;;;;;;38.60;19.42;;;;;;;3.64;89.44;99628.13;4976199;28;20034;-76
2020/12/05 05:05:24;;;;;;;40.55;17.98;;;;;;;3.59;89.95;99619.56;4993415;28;20038;-80
2020/12/05 05:07:51;;;;;;;39.35;19.70;;;;;;;3.68;89.90;99629.75;4993191;28;20027;-83
2020/12/05 05:10:30;;;;;;;39.97;19.67;;;;;;;3.70;89.83;99634.03;4996664;28;20041;-84
2020/12/05 05:13:13;;;;;;;38.22;18.92;;;;;;;3.62;89.78;99622.06;4979418;28;20053;-84
2020/12/05 05:15:39;;;;;;;36.00;17.27;;;;;;;3.52;90.03;99608.41;4980654;28;20073;-83
2020/12/05 05:18:05;;;;;;;39.67;17.75;;;;;;;3.62;89.86;99622.06;4962737;28;20065;-82
2020/12/05 05:20:37;;;;;;;37.38;18.65;;;;;;;3.55;90.22;99623.25;4979241;28;20088;-81
2020/12/05 05:23:17;;;;;;;38.28;18.13;;;;;;;3.59;90.71;99635.41;4996545;28;20141;-82
2020/12/05 05:25:58;;;;;;;44.17;20.08;;;;;;;3.55;90.50;99639.91;4996627;28;20046;-81
2020/12/05 05:28:37;;;;;;;42.58;19.55;;;;;;;3.34;91.23;99636.38;4996348;28;20037;-81
2020/12/05 05:31:09;;;;;;;40.38;17.75;;;;;;;3.31;91.83;99657.59;4978845;28;20030;-81
2020/12/05 05:33:47;;;;;;;44.43;20.23;;;;;;;3.22;92.49;99671.16;4996882;28;20031;-82
2020/12/05 05:36:26;;;;;;;40.95;19.80;;;;;;;3.13;92.49;99663.59;4996065;28;20248;-80
2020/12/05 05:39:01;;;;;;;41.58;19.63;;;;;;;3.45;92.25;99649.13;4996197;28;20046;-81
2020/12/05 05:41:27;;;;;;;42.13;19.58;;;;;;;3.52;91.75;99665.56;4996440;28;20070;-82
2020/12/05 05:44:02;;;;;;;39.70;17.85;;;;;;;3.58;91.66;99673.25;4997113;28;20432;-82
2020/12/05 05:46:32;;;;;;;39.08;17.83;;;;;;;3.42;91.03;99634.31;4997922;28;20388;-81
2020/12/05 05:48:58;;;;;;;40.20;18.65;;;;;;;3.53;91.44;99672.56;4978691;28;20046;-78
2020/12/05 05:51:40;;;;;;;41.28;18.80;;;;;;;3.53;91.26;99676.03;4996022;28;20050;-82
2020/12/05 05:54:37;;;;;;;37.60;17.52;;;;;;;3.60;91.20;99690.72;4996154;28;20027;-78
2020/12/05 05:57:08;;;;;;;42.40;19.58;;;;;;;3.53;91.41;99693.66;4978196;28;20026;-75
2020/12/05 05:59:38;;;;;;;43.70;19.70;;;;;;;3.47;92.14;99693.88;4995892;28;20030;-80
2020/12/05 06:02:06;;;;;;;40.20;18.30;;;;;;;3.47;92.07;99701.78;4995394;28;20054;-77
2020/12/05 06:04:33;;;;;;;44.17;19.73;;;;;;;3.54;92.35;99705.91;4978507;28;20031;-79
2020/12/05 06:07:00;;;;;;;39.53;18.60;;;;;;;3.49;92.29;99703.47;4995893;28;20084;-80
2020/12/05 06:09:28;;;;;;;40.85;19.13;;;;;;;3.33;92.18;99687.41;4978434;28;20034;-80
2020/12/05 06:11:56;;;;;;;36.13;18.75;;;;;;;3.72;91.17;99697.25;4978251;28;20033;-79
2020/12/05 06:14:23;;;;;;;41.55;19.23;;;;;;;3.67;91.11;99702.75;4995314;28;20448;-78
2020/12/05 06:16:54;;;;;;;42.50;19.55;;;;;;;3.42;91.26;99699.34;4995415;28;20535;-79
2020/12/05 06:19:21;;;;;;;38.25;19.33;;;;;;;3.36;92.26;99704.84;4977587;28;20038;-79
2020/12/05 06:21:55;;;;;;;39.33;19.58;;;;;;;3.26;92.38;99701.72;4995856;28;20119;-80
2020/12/05 06:24:45;;;;;;;43.58;20.63;;;;;;;3.20;93.22;99711.66;4995395;28;20089;-82
2020/12/05 06:27:13;;;;;;;39.60;19.15;;;;;;;3.10;93.63;99711.16;4978561;28;20110;-77
2020/12/05 06:29:39;;;;;;;43.17;20.90;;;;;;;2.99;93.43;99689.59;4977914;28;20399;-77
2020/12/05 06:32:05;;;;;;;40.83;19.60;;;;;;;3.01;93.72;99706.25;4977702;28;20034;-78
2020/12/05 06:34:42;;;;;;;44.70;20.23;;;;;;;2.99;93.89;99703.66;4978817;28;20080;-78
2020/12/05 06:37:30;;;;;;;41.35;20.52;;;;;;;3.08;94.31;99723.50;4996925;28;20027;-79
2020/12/05 06:40:04;;;;;;;39.15;19.45;;;;;;;3.22;94.00;99729.13;4978213;28;20108;-78
2020/12/05 06:42:39;;;;;;;44.28;19.40;;;;;;;3.15;94.05;99719.75;4994841;28;20030;-78
2020/12/05 06:45:05;;;;;;;39.20;19.67;;;;;;;3.26;93.47;99717.53;4995398;28;20085;-79
2020/12/05 06:47:30;;;;;;;41.47;19.80;;;;;;;3.28;93.07;99721.00;4995182;28;20085;-79
2020/12/05 06:49:56;;;;;;;44.05;19.58;;;;;;;3.55;92.39;99744.53;4977273;28;20419;-78
2020/12/05 06:52:21;;;;;;;38.65;19.63;;;;;;;3.51;91.60;99742.97;4977327;28;20037;-78
2020/12/05 06:54:49;;;;;;;48.05;20.88;;;;;;;3.41;92.34;99740.69;4994956;28;20438;-79
2020/12/05 06:57:15;;;;;;;38.05;19.27;;;;;;;3.55;92.01;99744.53;4994524;28;20034;-79
2020/12/05 06:59:40;;;;;;;42.40;20.52;;;;;;;3.52;92.00;99739.41;4994715;28;20527;-78
2020/12/05 07:02:53;;;;;;;44.10;21.52;;;;;;;3.48;91.96;99749.22;4995298;28;20093;-78
2020/12/05 07:05:19;;;;;;;44.05;20.52;;;;;;;3.43;92.26;99752.03;4934306;29;20057;-80
2020/12/05 07:07:50;;;;;;;44.40;21.58;;;;;;;3.26;92.26;99711.41;4969901;28;20463;-79
2020/12/05 07:10:20;;;;;;;41.70;19.92;;;;;;;3.54;92.20;99748.09;4994409;28;20081;-78
2020/12/05 07:12:46;;;;;;;47.35;21.05;;;;;;;3.70;91.72;99736.03;4977314;28;20034;-80
2020/12/05 07:15:28;;;;;;;43.00;20.58;;;;;;;3.87;91.09;99736.22;4976925;28;20034;-78
2020/12/05 07:17:55;;;;;;;46.17;21.25;;;;;;;3.70;91.19;99718.44;4994353;28;20096;-78
2020/12/05 07:20:21;;;;;;;44.20;20.63;;;;;;;3.64;91.18;99697.56;4976713;28;20038;-77
2020/12/05 07:22:51;;;;;;;43.47;21.08;;;;;;;3.96;91.01;99745.53;4994271;28;20396;-78
2020/12/05 07:25:18;;;;;;;41.25;19.42;;;;;;;4.06;90.78;99748.66;4976451;28;20038;-78
2020/12/05 07:27:44;;;;;;;38.47;18.80;;;;;;;3.91;90.68;99716.69;4994127;28;20523;-80
2020/12/05 07:30:10;;;;;;;40.97;20.15;;;;;;;4.10;90.50;99752.88;4976804;28;20088;-80
2020/12/05 07:32:38;;;;;;;41.15;18.80;;;;;;;4.22;90.85;99752.34;4993573;28;20026;-81
2020/12/05 07:35:15;;;;;;;41.20;20.67;;;;;;;4.31;90.57;99741.41;4977019;28;20086;-78
2020/12/05 07:37:41;;;;;;;38.13;19.23;;;;;;;4.37;89.81;99738.50;4994281;28;20038;-77
2020/12/05 07:40:07;;;;;;;35.90;18.02;;;;;;;4.56;89.47;99752.63;4994202;28;20068;-77
2020/12/05 07:42:42;;;;;;;42.75;20.17;;;;;;;4.59;89.64;99741.06;4976412;28;20447;-77
2020/12/05 07:45:16;;;;;;;38.40;18.73;;;;;;;4.53;89.41;99726.34;4994060;28;20066;-78
2020/12/05 07:47:41;;;;;;;39.25;18.77;;;;;;;4.68;89.04;99739.81;4976545;28;20049;-79
2020/12/05 07:50:09;;;;;;;39.15;18.20;;;;;;;4.53;89.22;99713.13;4976507;28;20054;-78
2020/12/05 07:52:37;;;;;;;42.50;19.45;;;;;;;4.74;89.43;99747.47;4993443;28;20034;-77
2020/12/05 07:55:05;;;;;;;39.38;18.10;;;;;;;4.85;89.17;99747.84;4993783;28;20043;-78
2020/12/05 07:57:33;;;;;;;41.65;19.05;;;;;;;4.75;89.30;99735.97;4976159;28;20045;-80
2020/12/05 08:00:04;;;;;;;40.42;19.13;;;;;;;4.83;89.21;99755.00;4993732;28;20391;-77
2020/12/05 08:02:36;;;;;;;40.72;18.52;;;;;;;4.87;89.54;99753.94;4975993;28;20042;-78
2020/12/05 08:05:18;;;;;;;38.70;18.70;;;;;;;4.79;89.12;99721.69;4976155;28;20121;-76
2020/12/05 08:07:55;;;;;;;39.50;18.08;;;;;;;5.20;88.76;99748.88;4997622;28;20027;-78
2020/12/05 08:10:23;;;;;;;42.70;18.60;;;;;;;5.21;88.83;99749.75;4956017;28;20058;-78
2020/12/05 08:13:13;;;;;;;34.78;18.10;;;;;;;5.29;88.60;99751.09;4992653;28;20034;-84
2020/12/05 08:15:39;;;;;;;34.75;17.08;;;;;;;5.20;88.31;99716.28;4991465;28;20057;-80
2020/12/05 08:18:06;;;;;;;40.35;19.05;;;;;;;5.56;87.99;99772.75;4976094;28;20042;-82
2020/12/05 08:20:32;;;;;;;37.60;18.90;;;;;;;5.45;87.88;99748.59;4993236;28;20042;-74
2020/12/05 08:22:59;;;;;;;35.67;17.42;;;;;;;5.56;88.14;99769.25;4993521;28;20069;-76
2020/12/05 08:25:26;;;;;;;37.00;18.60;;;;;;;5.50;88.17;99759.84;4975673;28;20034;-76
2020/12/05 08:27:53;;;;;;;35.15;17.92;;;;;;;5.57;88.18;99774.47;4960013;28;20080;-76
2020/12/05 08:30:20;;;;;;;36.65;18.00;;;;;;;5.74;88.12;99778.97;4993140;28;20034;-80
2020/12/05 08:32:45;;;;;;;34.00;17.17;;;;;;;5.77;87.74;99786.75;4993202;28;20077;-79
2020/12/05 08:35:14;;;;;;;37.30;18.50;;;;;;;5.81;87.57;99783.06;4975696;28;20129;-83
2020/12/05 08:37:44;;;;;;;36.55;17.90;;;;;;;5.92;87.33;99785.22;4993625;28;20041;-79
2020/12/05 08:40:17;;;;;;;33.17;16.98;;;;;;;6.00;86.63;99773.31;4993128;28;20088;-79
2020/12/05 08:42:49;;;;;;;38.88;17.45;;;;;;;6.06;86.34;99766.84;4976153;28;20567;-80
2020/12/05 08:45:16;;;;;;;32.70;16.15;;;;;;;6.13;86.21;99778.00;4997280;28;20484;-78
2020/12/05 08:47:46;;;;;;;33.83;16.77;;;;;;;6.08;85.93;99761.47;4997444;28;20034;-74
2020/12/05 08:50:25;;;;;;;32.90;16.52;;;;;;;6.20;86.01;99774.97;4997197;28;20077;-74
2020/12/05 08:52:53;;;;;;;35.63;16.83;;;;;;;6.20;85.53;99777.63;4997376;28;20046;-74
2020/12/05 08:55:25;;;;;;;36.05;17.23;;;;;;;6.27;85.77;99779.03;4997056;28;20022;-78
2020/12/05 08:58:01;;;;;;;36.85;16.58;;;;;;;6.21;85.73;99771.41;4979503;28;20030;-81
2020/12/05 09:00:28;;;;;;;34.75;17.00;;;;;;;6.29;85.80;99779.81;4979233;28;20058;-80
2020/12/05 09:02:54;;;;;;;32.55;16.15;;;;;;;6.21;86.09;99775.84;4997020;28;20035;-83
2020/12/05 09:05:20;;;;;;;36.50;18.17;;;;;;;6.23;86.52;99785.41;4996668;28;20040;-79
2020/12/05 09:07:57;;;;;;;37.03;17.92;;;;;;;6.32;85.69;99769.06;4979820;28;20030;-80
2020/12/05 09:10:25;;;;;;;35.30;16.77;;;;;;;6.33;85.70;99759.31;4997011;28;20268;-83
2020/12/05 09:12:51;;;;;;;37.58;17.05;;;;;;;6.46;84.94;99754.25;4998677;28;20041;-81
2020/12/05 09:15:17;;;;;;;34.22;17.05;;;;;;;6.54;84.63;99768.81;4997874;28;20070;-81
2020/12/05 09:17:43;;;;;;;31.05;15.95;;;;;;;6.53;84.69;99776.84;4996768;28;20030;-76
2020/12/05 09:20:10;;;;;;;35.35;16.67;;;;;;;6.57;84.90;99787.22;4996547;28;20439;-77
2020/12/05 09:22:36;;;;;;;34.83;17.67;;;;;;;6.57;84.80;99787.22;4996146;28;20384;-76
2020/12/05 09:25:03;;;;;;;31.58;16.55;;;;;;;6.56;84.91;99785.53;4996604;28;20048;-80
2020/12/05 09:27:39;;;;;;;34.47;17.20;;;;;;;6.62;84.72;99780.81;4962718;28;20519;-79
2020/12/05 09:30:10;;;;;;;35.63;17.50;;;;;;;6.61;85.52;99787.91;4996580;28;20038;-85
2020/12/05 09:32:37;;;;;;;34.47;16.92;;;;;;;6.69;84.45;99772.50;4996381;28;20077;-83
2020/12/05 09:35:02;;;;;;;36.60;17.65;;;;;;;6.81;84.68;99786.88;4962946;28;20392;-79
2020/12/05 09:37:28;;;;;;;41.13;17.48;;;;;;;6.84;84.37;99786.72;4996289;28;20027;-77
2020/12/05 09:39:53;;;;;;;31.17;16.35;;;;;;;6.70;84.14;99731.78;4966162;28;20045;-77
2020/12/05 09:42:23;;;;;;;30.05;16.35;;;;;;;7.00;83.70;99768.22;4979110;28;20085;-76
2020/12/05 09:44:49;;;;;;;31.23;16.52;;;;;;;6.88;83.78;99740.56;4979053;28;20053;-78
2020/12/05 09:47:14;;;;;;;32.85;16.52;;;;;;;7.03;83.86;99765.41;4962909;28;20476;-78
2020/12/05 09:49:40;;;;;;;31.25;17.13;;;;;;;7.03;83.53;99760.94;4962377;28;20055;-77
2020/12/05 09:52:05;;;;;;;32.78;16.67;;;;;;;6.87;83.77;99742.38;4978680;28;20041;-76
2020/12/05 09:54:31;;;;;;;30.55;15.73;;;;;;;6.77;83.76;99714.63;4977643;28;20042;-75
2020/12/05 09:56:56;;;;;;;34.80;16.35;;;;;;;7.17;83.62;99768.19;4996158;28;20026;-79
2020/12/05 09:59:22;;;;;;;37.40;17.52;;;;;;;7.15;83.52;99770.94;4995650;28;20034;-76
2020/12/05 10:01:47;;;;;;;31.50;16.55;;;;;;;7.31;82.56;99760.31;4964436;28;20118;-77
2020/12/05 10:04:15;;;;;;;28.30;15.05;;;;;;;7.18;82.08;99738.06;4995888;28;20034;-77
2020/12/05 10:06:41;;;;;;;26.70;14.10;;;;;;;7.29;82.24;99759.56;4978664;28;20286;-73
2020/12/05 10:09:06;;;;;;;31.67;15.95;;;;;;;7.18;82.74;99749.53;4978390;28;20522;-75
2020/12/05 10:11:32;;;;;;;33.90;16.60;;;;;;;7.08;82.79;99742.16;4978023;28;20038;-76
2020/12/05 10:13:57;;;;;;;33.08;16.73;;;;;;;7.20;83.29;99767.16;4995476;28;20117;-78
2020/12/05 10:16:23;;;;;;;33.45;16.42;;;;;;;7.15;82.93;99748.84;4977737;28;20030;-81
2020/12/05 10:18:48;;;;;;;30.42;15.63;;;;;;;7.32;82.43;99767.34;4978129;28;20035;-81
2020/12/05 10:21:13;;;;;;;30.10;16.08;;;;;;;7.41;82.13;99780.09;4978371;28;20050;-82
2020/12/05 10:23:39;;;;;;;32.15;15.68;;;;;;;7.41;81.69;99752.72;4961491;28;20042;-77
2020/12/05 10:26:07;;;;;;;32.53;15.40;;;;;;;7.61;81.73;99772.84;4978054;28;20054;-79
2020/12/05 10:28:32;;;;;;;30.13;15.88;;;;;;;7.46;82.32;99759.50;4994971;28;20495;-79
2020/12/05 10:30:58;;;;;;;29.98;16.00;;;;;;;7.61;81.68;99775.50;4995026;28;20113;-80
2020/12/05 10:33:23;;;;;;;31.50;15.13;;;;;;;7.41;82.13;99724.38;4995046;28;20030;-77
2020/12/05 10:35:49;;;;;;;30.73;15.45;;;;;;;7.45;81.66;99725.94;4962246;28;20030;-82
2020/12/05 10:38:14;;;;;;;27.63;15.85;;;;;;;7.71;81.86;99756.31;4995394;28;20085;-76
2020/12/05 10:40:40;;;;;;;30.33;16.50;;;;;;;7.67;81.99;99754.78;4995113;28;20039;-78
2020/12/05 10:43:05;;;;;;;34.15;17.08;;;;;;;7.73;82.38;99750.94;4977629;28;20392;-78
2020/12/05 10:45:31;;;;;;;30.70;16.27;;;;;;;7.75;82.04;99747.25;4977381;28;20093;-77
2020/12/05 10:47:56;;;;;;;32.17;16.58;;;;;;;7.79;82.11;99739.97;4995051;28;20434;-79
2020/12/05 10:50:22;;;;;;;29.20;16.40;;;;;;;7.62;82.16;99717.00;4995270;28;20217;-83
2020/12/05 10:52:47;;;;;;;29.70;15.88;;;;;;;7.48;82.51;99695.72;4994708;28;20511;-81
2020/12/05 10:55:13;;;;;;;29.92;16.30;;;;;;;7.87;82.13;99737.72;4997095;28;20121;-80
2020/12/05 10:57:38;;;;;;;31.55;15.63;;;;;;;7.74;81.76;99694.25;4996178;28;20136;-77
2020/12/05 11:00:03;;;;;;;33.45;16.00;;;;;;;8.08;81.59;99748.91;4988016;28;20050;-76
2020/12/05 11:02:29;;;;;;;28.52;15.27;;;;;;;8.09;81.54;99741.78;5013858;28;20065;-74
2020/12/05 11:04:54;;;;;;;28.67;15.02;;;;;;;8.11;81.47;99740.78;4980723;28;20033;-75
2020/12/05 11:07:20;;;;;;;30.77;15.88;;;;;;;8.04;81.72;99742.06;4976493;28;20030;-81
2020/12/05 11:09:45;;;;;;;31.80;15.13;;;;;;;8.29;80.87;99739.69;4994298;28;20396;-82
2020/12/05 11:12:10;;;;;;;27.45;15.05;;;;;;;8.02;80.96;99699.69;4979031;28;20030;-76
2020/12/05 11:14:36;;;;;;;30.55;16.15;;;;;;;8.18;80.98;99726.19;5013471;28;20045;-76
2020/12/05 11:17:01;;;;;;;29.30;16.83;;;;;;;8.31;81.19;99747.59;4996125;28;20045;-78
2020/12/05 11:19:27;;;;;;;31.90;15.57;;;;;;;8.18;82.10;99720.88;5013409;28;20034;-76
2020/12/05 11:21:52;;;;;;;29.42;15.02;;;;;;;8.29;81.19;99723.75;4979779;28;20072;-78
2020/12/05 11:24:18;;;;;;;27.80;15.57;;;;;;;8.31;80.92;99705.94;5013711;28;20052;-77
2020/12/05 11:26:43;;;;;;;31.45;16.05;;;;;;;8.37;80.69;99703.88;5014008;28;20030;-77
2020/12/05 11:29:08;;;;;;;27.52;14.88;;;;;;;8.56;81.05;99720.41;5013834;28;20494;-77